Time;durP1;ratioP1;P1;durP2;ratioP2;P2;SDS_P1;SDS_P2;PMS_P1;PMS_P2;Temp;Humidity;BMP_temperature;BMP_pressure;BME280_temperature;BME280_humidity;BME280_pressure;Samples;Min_cycle;Max_cycle;Signal;HPM_P1;HPM_P2
2022/03/24 00:02:06;;;;;;;3.37;1.43;;;;;;;5.95;39.20;99854.81;5138055;27;20528;-86
2022/03/24 00:04:32;;;;;;;15.47;2.63;;;;;;;6.00;38.70;99857.31;5139438;27;20225;-86
2022/03/24 00:06:57;;;;;;;4.33;2.10;;;;;;;5.96;38.51;99843.50;5157864;27;20186;-86
2022/03/24 00:09:23;;;;;;;5.70;3.10;;;;;;;5.83;38.72;99842.03;5157536;27;20186;-86
2022/03/24 00:11:48;;;;;;;9.23;2.07;;;;;;;5.83;38.74;99841.19;5157646;27;20182;-86
2022/03/24 00:14:16;;;;;;;6.47;2.37;;;;;;;5.60;39.16;99839.09;5139260;27;20273;-86
2022/03/24 00:16:42;;;;;;;5.10;2.20;;;;;;;5.48;38.57;99840.19;5139214;27;20180;-86
2022/03/24 00:19:08;;;;;;;6.40;2.97;;;;;;;5.32;39.29;99843.16;5157665;27;20183;-86
2022/03/24 00:21:33;;;;;;;4.53;1.33;;;;;;;5.27;39.52;99831.97;5157298;27;20164;-86
2022/03/24 00:23:58;;;;;;;4.00;1.33;;;;;;;5.25;39.70;99826.81;5157331;27;20171;-86
2022/03/24 00:26:24;;;;;;;1.83;1.43;;;;;;;5.39;39.48;99826.53;5157264;27;20211;-86
2022/03/24 00:28:49;;;;;;;5.70;1.17;;;;;;;5.37;40.21;99812.72;5157200;27;20238;-87
2022/03/24 00:31:15;;;;;;;5.73;1.50;;;;;;;5.42;40.02;99813.47;5138836;27;20254;-86
2022/03/24 00:33:40;;;;;;;6.43;1.83;;;;;;;5.44;40.25;99812.56;5138918;27;20647;-86
2022/03/24 00:36:09;;;;;;;1.60;1.17;;;;;;;5.38;40.08;99804.88;5157338;27;20191;-87
2022/03/24 00:38:34;;;;;;;2.53;1.87;;;;;;;5.40;40.30;99810.91;5138811;27;20187;-86
2022/03/24 00:41:00;;;;;;;3.37;1.90;;;;;;;5.44;40.48;99801.31;5138692;27;20560;-87
2022/03/24 00:43:26;;;;;;;5.57;1.63;;;;;;;5.37;40.81;99803.16;5157173;27;20170;-87
2022/03/24 00:45:52;;;;;;;3.60;1.30;;;;;;;5.38;40.89;99801.41;5138613;27;20258;-87
2022/03/24 00:48:18;;;;;;;5.33;1.53;;;;;;;5.32;41.07;99797.19;5157075;27;20176;-87
2022/03/24 00:50:44;;;;;;;6.13;1.70;;;;;;;5.37;40.08;99800.56;5156761;27;20336;-87
2022/03/24 00:53:10;;;;;;;3.67;1.53;;;;;;;5.21;41.73;99796.59;5138468;27;20190;-87
2022/03/24 00:55:36;;;;;;;3.37;2.03;;;;;;;5.07;40.85;99795.13;5138433;27;20174;-87
2022/03/24 00:58:01;;;;;;;3.87;1.80;;;;;;;5.16;40.96;99793.25;5138440;27;20517;-87
2022/03/24 01:00:27;;;;;;;3.73;2.37;;;;;;;5.16;41.55;99787.19;5156875;27;20172;-87
2022/03/24 01:02:53;;;;;;;2.47;1.53;;;;;;;5.13;41.53;99788.09;5138291;27;20201;-87
2022/03/24 01:05:20;;;;;;;2.57;1.37;;;;;;;5.09;41.57;99783.84;5156510;27;20184;-87
2022/03/24 01:07:46;;;;;;;4.37;2.20;;;;;;;5.09;40.92;99785.56;5156747;27;20171;-87
2022/03/24 01:10:15;;;;;;;8.00;3.10;;;;;;;5.08;41.75;99766.53;5156356;27;20319;-87
2022/03/24 01:12:42;;;;;;;5.23;1.70;;;;;;;5.12;41.82;99773.38;5155805;27;20218;-87
2022/03/24 01:15:09;;;;;;;2.93;1.60;;;;;;;5.06;41.69;99767.47;5156539;27;20183;-87
2022/03/24 01:17:35;;;;;;;5.10;1.53;;;;;;;5.15;41.41;99762.06;5156833;27;20198;-87
2022/03/24 01:20:01;;;;;;;2.10;1.17;;;;;;;5.16;41.05;99764.66;5137921;27;20243;-87
2022/03/24 01:22:27;;;;;;;3.83;1.50;;;;;;;5.02;41.49;99758.88;5137993;27;20178;-87
2022/03/24 01:24:52;;;;;;;5.17;1.90;;;;;;;5.00;41.22;99755.44;5156350;27;20166;-87
2022/03/24 01:27:18;;;;;;;7.53;2.50;;;;;;;4.89;42.36;99750.47;5156038;27;20171;-87
2022/03/24 01:29:44;;;;;;;6.53;2.83;;;;;;;4.85;42.29;99753.13;5155889;27;20275;-87
2022/03/24 01:32:11;;;;;;;8.77;2.50;;;;;;;4.85;42.10;99747.94;5155956;27;20175;-87
2022/03/24 01:34:39;;;;;;;11.17;3.10;;;;;;;4.88;42.50;99747.88;5137641;27;20197;-87
2022/03/24 01:37:06;;;;;;;4.97;2.33;;;;;;;4.88;42.50;99748.75;5137627;27;20174;-88
2022/03/24 01:39:32;;;;;;;5.23;2.03;;;;;;;4.87;42.32;99743.59;5156094;27;20164;-87
2022/03/24 01:41:58;;;;;;;6.50;1.93;;;;;;;4.91;41.64;99747.84;5155744;27;20616;-87
2022/03/24 01:44:26;;;;;;;5.67;2.37;;;;;;;4.84;42.25;99751.44;5155748;27;20167;-87
2022/03/24 01:47:02;;;;;;;10.80;3.33;;;;;;;4.79;42.60;99748.94;5137409;27;20269;-87
2022/03/24 01:49:31;;;;;;;15.17;4.57;;;;;;;4.75;42.36;99746.41;5137604;27;20338;-87
2022/03/24 01:51:57;;;;;;;4.17;2.17;;;;;;;4.81;42.38;99744.56;5155857;27;20167;-87
2022/03/24 01:54:27;;;;;;;5.10;2.87;;;;;;;4.72;42.71;99744.75;5155507;27;20205;-87
2022/03/24 01:56:53;;;;;;;7.30;3.17;;;;;;;4.65;42.88;99734.50;5137291;27;20258;-87
2022/03/24 01:59:19;;;;;;;8.40;2.47;;;;;;;4.71;42.77;99745.63;5155460;27;20162;-87
2022/03/24 02:01:46;;;;;;;10.60;2.70;;;;;;;4.69;42.79;99736.16;5137169;27;20596;-87
2022/03/24 02:04:13;;;;;;;3.47;2.70;;;;;;;4.68;42.87;99740.50;5155579;27;20532;-87
2022/03/24 02:06:39;;;;;;;6.33;2.83;;;;;;;4.72;42.81;99741.28;5155296;27;20163;-87
2022/03/24 02:09:05;;;;;;;7.43;2.43;;;;;;;4.64;42.57;99735.41;5155213;27;20166;-87
2022/03/24 02:11:32;;;;;;;9.37;3.43;;;;;;;4.61;42.71;99741.47;5155522;27;20170;-87
2022/03/24 02:13:58;;;;;;;4.80;1.97;;;;;;;4.54;42.98;99731.25;5136852;27;20190;-87
2022/03/24 02:16:27;;;;;;;7.77;2.40;;;;;;;4.42;43.07;99739.28;5155702;27;20166;-87
2022/03/24 02:18:59;;;;;;;7.20;2.10;;;;;;;4.43;43.41;99735.81;5155706;27;20170;-87
2022/03/24 02:21:25;;;;;;;4.97;1.40;;;;;;;4.44;43.11;99730.56;5155417;27;20147;-87
2022/03/24 02:23:50;;;;;;;5.67;1.47;;;;;;;4.43;43.16;99730.63;5154405;27;20171;-87
2022/03/24 02:26:17;;;;;;;6.47;2.20;;;;;;;4.40;42.54;99728.94;5136722;27;20650;-87
2022/03/24 02:28:44;;;;;;;2.43;1.30;;;;;;;4.33;43.04;99728.16;5155002;27;20221;-87
2022/03/24 02:31:10;;;;;;;4.73;1.77;;;;;;;4.30;42.71;99730.81;5154942;27;20686;-87
2022/03/24 02:33:36;;;;;;;3.30;1.50;;;;;;;4.32;42.37;99723.03;5136668;27;20170;-87
2022/03/24 02:36:03;;;;;;;5.43;1.83;;;;;;;4.28;42.61;99722.22;5155165;27;20665;-87
2022/03/24 02:38:28;;;;;;;2.57;1.53;;;;;;;4.30;43.02;99728.22;5155180;27;20170;-87
2022/03/24 02:40:54;;;;;;;2.43;1.67;;;;;;;4.34;42.61;99727.31;5154858;27;20188;-87
2022/03/24 02:43:20;;;;;;;1.83;1.07;;;;;;;4.29;43.01;99725.66;5154846;27;20174;-87
2022/03/24 02:45:48;;;;;;;3.40;2.17;;;;;;;4.25;43.18;99722.25;5154853;27;20174;-88
2022/03/24 02:48:14;;;;;;;2.57;1.43;;;;;;;4.32;43.46;99728.22;5154822;27;20175;-88
2022/03/24 02:50:40;;;;;;;3.00;1.13;;;;;;;4.28;42.94;99719.63;5154689;27;20201;-88
2022/03/24 02:53:05;;;;;;;3.87;1.07;;;;;;;4.14;42.85;99715.56;5155058;27;20166;-88
2022/03/24 02:55:31;;;;;;;4.03;2.53;;;;;;;4.15;42.38;99715.53;5154962;27;20222;-88
2022/03/24 02:57:56;;;;;;;0.93;0.77;;;;;;;4.12;42.54;99710.38;5154987;27;20166;-88
2022/03/24 03:00:25;;;;;;;2.77;1.90;;;;;;;4.12;42.48;99707.78;5154627;27;20194;-88
2022/03/24 03:02:55;;;;;;;3.47;1.87;;;;;;;4.11;41.50;99707.84;5154673;27;20238;-87
2022/03/24 03:05:22;;;;;;;3.27;1.93;;;;;;;4.04;40.58;99703.63;5154647;27;20170;-87
2022/03/24 03:07:47;;;;;;;7.93;1.47;;;;;;;3.91;41.32;99707.28;5154882;27;20177;-87
2022/03/24 03:10:13;;;;;;;2.20;1.63;;;;;;;3.89;41.28;99699.56;5154811;27;20186;-87
2022/03/24 03:12:39;;;;;;;1.40;1.10;;;;;;;3.80;41.13;99707.47;5154754;27;20749;-87
2022/03/24 03:15:05;;;;;;;5.10;1.90;;;;;;;3.69;41.33;99702.47;5154533;27;20170;-87
2022/03/24 03:17:33;;;;;;;3.13;1.57;;;;;;;3.55;42.05;99693.19;5136324;27;20182;-87
2022/03/24 03:19:59;;;;;;;4.70;1.60;;;;;;;3.51;41.78;99696.72;5136248;27;20166;-87
2022/03/24 03:22:26;;;;;;;2.07;1.30;;;;;;;3.58;42.05;99690.56;5154463;27;20657;-87
2022/03/24 03:24:52;;;;;;;3.87;1.83;;;;;;;3.76;41.04;99687.69;5154741;27;20201;-88
2022/03/24 03:27:18;;;;;;;2.07;0.93;;;;;;;3.74;41.16;99689.44;5154976;27;20185;-88
2022/03/24 03:29:43;;;;;;;4.03;1.00;;;;;;;3.82;41.79;99686.72;5154372;27;20662;-87
2022/03/24 03:32:10;;;;;;;3.57;2.07;;;;;;;3.94;40.70;99684.78;5154698;27;20471;-87
2022/03/24 03:34:37;;;;;;;9.47;5.10;;;;;;;4.00;40.82;99681.22;5136453;27;20193;-87
2022/03/24 03:37:04;;;;;;;4.10;2.13;;;;;;;4.06;40.59;99688.91;5139528;27;20166;-87
2022/03/24 03:39:29;;;;;;;3.50;1.93;;;;;;;4.01;42.03;99688.97;5139945;27;20175;-87
2022/03/24 03:41:57;;;;;;;10.30;3.43;;;;;;;4.10;41.04;99681.03;5158473;27;20178;-87
2022/03/24 03:44:23;;;;;;;5.60;3.00;;;;;;;4.14;42.41;99679.25;5158136;27;20166;-87
2022/03/24 03:46:50;;;;;;;6.33;2.37;;;;;;;4.09;41.59;99679.31;5139779;27;20166;-87
2022/03/24 03:49:16;;;;;;;4.17;2.90;;;;;;;4.06;41.57;99670.75;5158199;27;20166;-88
2022/03/24 03:51:41;;;;;;;3.57;1.70;;;;;;;4.07;41.86;99670.72;5158524;27;20162;-87
2022/03/24 03:54:10;;;;;;;9.70;2.03;;;;;;;4.14;41.79;99682.66;5157898;27;20542;-87
2022/03/24 03:56:37;;;;;;;4.13;2.80;;;;;;;4.17;41.31;99668.78;5158120;27;20536;-88
2022/03/24 03:59:06;;;;;;;3.60;1.80;;;;;;;4.06;42.85;99661.19;5139542;27;20216;-87
2022/03/24 04:01:32;;;;;;;4.70;1.40;;;;;;;4.02;42.80;99664.75;5157805;27;20158;-87
2022/03/24 04:03:57;;;;;;;4.73;2.27;;;;;;;3.98;41.61;99657.06;5158017;27;20231;-87
2022/03/24 04:06:24;;;;;;;7.00;1.90;;;;;;;3.97;41.86;99668.31;5157691;27;20162;-88
2022/03/24 04:08:50;;;;;;;4.33;1.63;;;;;;;3.91;43.40;99663.22;5157664;27;20502;-88
2022/03/24 04:11:15;;;;;;;2.73;1.63;;;;;;;3.87;43.68;99659.84;5157564;27;20721;-87
2022/03/24 04:13:43;;;;;;;3.47;2.10;;;;;;;3.85;43.64;99665.94;5157497;27;20183;-88
2022/03/24 04:16:13;;;;;;;3.43;1.30;;;;;;;3.83;43.95;99668.53;5158018;27;20249;-87
2022/03/24 04:18:44;;;;;;;6.17;1.77;;;;;;;3.77;43.49;99673.84;5139209;27;20163;-88
2022/03/24 04:21:10;;;;;;;7.97;3.43;;;;;;;3.75;44.54;99670.41;5157692;27;20163;-88
2022/03/24 04:23:37;;;;;;;7.10;4.03;;;;;;;3.69;44.23;99675.72;5157385;27;20254;-88
2022/03/24 04:26:04;;;;;;;12.43;5.63;;;;;;;3.74;44.17;99673.91;5157317;27;20639;-87
2022/03/24 04:28:30;;;;;;;13.97;6.67;;;;;;;3.67;44.34;99672.25;5139018;27;20217;-88
2022/03/24 04:30:55;;;;;;;24.87;6.57;;;;;;;3.68;44.37;99671.38;5138848;27;20251;-87
2022/03/24 04:33:21;;;;;;;14.60;5.77;;;;;;;3.64;44.69;99667.16;5157413;27;20249;-88
2022/03/24 04:35:46;;;;;;;12.00;4.23;;;;;;;3.74;44.15;99673.91;5138834;27;20253;-88
2022/03/24 04:38:14;;;;;;;8.27;3.70;;;;;;;3.81;44.04;99670.31;5157488;27;20184;-87
2022/03/24 04:40:39;;;;;;;13.07;4.03;;;;;;;3.83;44.76;99665.94;5157054;27;20147;-88
2022/03/24 04:43:05;;;;;;;8.03;3.40;;;;;;;3.72;44.57;99665.28;5156970;27;20529;-88
2022/03/24 04:45:33;;;;;;;9.10;3.17;;;;;;;3.69;44.86;99665.34;5156960;27;20174;-88
2022/03/24 04:48:00;;;;;;;17.90;3.40;;;;;;;3.71;44.63;99658.38;5156378;27;20174;-88
2022/03/24 04:50:26;;;;;;;15.50;5.90;;;;;;;3.73;44.80;99661.78;5156776;27;20186;-87
2022/03/24 04:52:52;;;;;;;12.33;7.23;;;;;;;3.61;45.03;99652.50;5157045;27;20170;-88
2022/03/24 04:55:18;;;;;;;11.60;6.10;;;;;;;3.70;45.16;99651.47;5156732;27;20548;-88
2022/03/24 04:57:44;;;;;;;11.10;5.47;;;;;;;3.73;45.42;99656.63;5156919;27;20166;-88
2022/03/24 05:00:12;;;;;;;13.03;4.17;;;;;;;3.75;45.18;99659.19;5156713;27;20174;-88
2022/03/24 05:02:38;;;;;;;9.23;3.37;;;;;;;3.69;44.40;99660.97;5138386;27;20174;-88
2022/03/24 05:05:06;;;;;;;4.70;1.93;;;;;;;3.74;44.80;99663.53;5138314;27;20182;-88
2022/03/24 05:07:31;;;;;;;6.30;2.67;;;;;;;3.81;44.30;99659.06;5138215;27;20611;-89
2022/03/24 05:09:57;;;;;;;3.57;2.30;;;;;;;3.96;43.63;99658.81;5156627;27;20289;-88
2022/03/24 05:12:22;;;;;;;4.00;2.30;;;;;;;4.09;43.35;99660.28;5156255;27;20643;-88
2022/03/24 05:14:48;;;;;;;2.93;2.13;;;;;;;4.21;44.04;99660.94;5156661;27;20178;-88
2022/03/24 05:17:14;;;;;;;8.27;2.90;;;;;;;4.23;43.79;99653.13;5156258;27;20203;-88
2022/03/24 05:19:39;;;;;;;8.03;2.27;;;;;;;4.32;43.64;99658.97;5138003;27;20236;-88
2022/03/24 05:22:05;;;;;;;5.73;2.80;;;;;;;4.43;43.92;99652.75;5156740;27;20167;-87
2022/03/24 05:24:31;;;;;;;3.90;1.70;;;;;;;4.50;44.34;99652.59;5156142;27;20174;-87
2022/03/24 05:26:57;;;;;;;2.70;1.63;;;;;;;4.67;43.98;99650.50;5156385;27;20249;-87
2022/03/24 05:29:22;;;;;;;4.03;2.00;;;;;;;5.36;43.78;99647.25;5156493;27;20250;-87
2022/03/24 05:31:48;;;;;;;4.23;1.80;;;;;;;5.96;43.53;99640.56;5156020;27;20175;-87
2022/03/24 05:34:13;;;;;;;5.33;2.73;;;;;;;6.52;42.95;99631.22;5137731;27;20246;-87
2022/03/24 05:36:39;;;;;;;4.37;2.27;;;;;;;7.07;42.41;99632.22;5137775;27;20182;-86
2022/03/24 05:39:04;;;;;;;11.20;4.33;;;;;;;7.71;41.85;99644.91;5155883;27;20179;-87
2022/03/24 05:42:14;;;;;;;3.33;1.87;;;;;;;8.07;39.70;99637.56;5156125;27;20176;-87
2022/03/24 05:44:50;;;;;;;20.53;6.63;;;;;;;8.45;39.04;99625.81;5136238;27;20206;-87
2022/03/24 05:47:16;;;;;;;22.20;8.93;;;;;;;8.95;38.53;99623.94;5137525;27;20522;-87
2022/03/24 05:49:42;;;;;;;15.27;7.70;;;;;;;9.28;36.41;99620.00;5155572;27;20190;-87
2022/03/24 05:52:07;;;;;;;21.57;7.27;;;;;;;9.56;37.00;99617.16;5155865;27;20578;-87
2022/03/24 05:54:33;;;;;;;14.27;4.80;;;;;;;9.71;36.61;99611.28;5155885;27;20170;-87
2022/03/24 05:56:58;;;;;;;4.40;2.30;;;;;;;10.16;36.43;99613.75;5137269;27;20174;-87
2022/03/24 05:59:25;;;;;;;6.07;2.13;;;;;;;10.59;35.10;99612.69;5155482;27;20221;-86
2022/03/24 06:01:50;;;;;;;5.43;2.13;;;;;;;10.89;35.08;99606.94;5137171;27;20552;-86
2022/03/24 06:04:19;;;;;;;3.03;2.00;;;;;;;10.99;34.78;99617.84;5155633;27;20169;-87
2022/03/24 06:06:45;;;;;;;7.83;2.37;;;;;;;11.26;34.96;99610.44;5137069;27;20313;-88
2022/03/24 06:09:10;;;;;;;5.43;2.23;;;;;;;11.43;35.21;99610.47;5137063;27;20194;-87
2022/03/24 06:11:37;;;;;;;3.37;1.53;;;;;;;11.41;33.46;99600.06;5136971;27;20220;-87
2022/03/24 06:14:03;;;;;;;5.53;2.47;;;;;;;11.30;34.06;99602.34;5133365;27;20700;-87
2022/03/24 06:16:29;;;;;;;7.73;2.10;;;;;;;11.80;33.61;99607.78;5133498;27;20530;-87
2022/03/24 06:18:56;;;;;;;5.30;2.00;;;;;;;12.19;33.01;99600.50;5134708;27;20613;-87
2022/03/24 06:21:22;;;;;;;7.23;2.60;;;;;;;13.00;32.92;99604.06;5134644;27;20178;-87
2022/03/24 06:23:48;;;;;;;7.80;1.93;;;;;;;13.79;30.80;99588.09;5134331;27;20171;-87
2022/03/24 06:26:13;;;;;;;9.17;3.60;;;;;;;14.28;30.63;99588.66;5134369;27;20171;-87
2022/03/24 06:28:39;;;;;;;5.00;2.50;;;;;;;15.03;29.87;99585.75;5134586;27;20182;-87
2022/03/24 06:31:05;;;;;;;2.40;1.63;;;;;;;15.37;28.77;99587.94;5134201;27;20678;-87
2022/03/24 06:33:30;;;;;;;5.70;2.67;;;;;;;15.61;28.49;99589.94;5133266;27;20168;-86
2022/03/24 06:35:56;;;;;;;6.17;3.40;;;;;;;16.04;27.75;99583.47;5133285;27;20648;-87
2022/03/24 06:38:21;;;;;;;9.63;2.10;;;;;;;16.92;27.02;99572.03;5134197;27;20173;-88
2022/03/24 06:40:46;;;;;;;8.57;3.07;;;;;;;16.92;26.72;99579.97;5133168;27;20255;-87
2022/03/24 06:43:12;;;;;;;12.67;2.80;;;;;;;17.24;26.92;99578.53;5134454;27;20181;-87
2022/03/24 06:45:38;;;;;;;15.53;2.97;;;;;;;17.27;26.51;99577.44;5133290;28;20174;-88
2022/03/24 06:48:08;;;;;;;5.53;2.00;;;;;;;17.45;26.31;99576.91;5134359;27;20178;-87
2022/03/24 06:50:35;;;;;;;4.10;2.03;;;;;;;17.04;26.56;99576.44;5134223;27;20611;-88
2022/03/24 06:53:01;;;;;;;7.80;2.17;;;;;;;16.92;26.18;99577.34;5133577;28;20653;-88
2022/03/24 06:55:27;;;;;;;5.27;2.33;;;;;;;16.80;26.87;99572.91;5134018;27;20170;-87
2022/03/24 06:57:52;;;;;;;4.33;1.97;;;;;;;17.32;27.24;99578.78;5132938;28;20206;-88
2022/03/24 07:00:18;;;;;;;7.97;2.47;;;;;;;17.36;26.04;99572.31;5132949;28;20189;-89
2022/03/24 07:02:46;;;;;;;7.10;3.00;;;;;;;17.38;26.95;99574.84;5134212;27;20560;-89
2022/03/24 07:05:13;;;;;;;6.17;2.13;;;;;;;17.10;26.23;99568.91;5133885;27;20179;-90
2022/03/24 07:07:39;;;;;;;8.63;2.60;;;;;;;16.70;27.27;99579.78;5134426;27;20206;-88
2022/03/24 07:10:06;;;;;;;5.70;2.20;;;;;;;16.69;27.15;99578.13;5134380;27;20193;-88
2022/03/24 07:12:31;;;;;;;7.57;2.20;;;;;;;16.46;27.24;99567.31;5144004;27;20186;-88
2022/03/24 07:14:57;;;;;;;8.80;2.30;;;;;;;16.34;27.74;99569.97;5158632;27;20691;-89
2022/03/24 07:17:22;;;;;;;6.47;1.97;;;;;;;16.34;28.23;99568.16;5158663;27;20249;-89
2022/03/24 07:19:48;;;;;;;6.07;2.20;;;;;;;16.64;27.85;99572.31;5158565;27;20201;-88
2022/03/24 07:22:14;;;;;;;4.67;2.20;;;;;;;16.61;28.03;99564.59;5158553;27;20520;-86
2022/03/24 07:24:39;;;;;;;2.67;1.67;;;;;;;16.50;27.90;99570.59;5158720;27;20193;-86
2022/03/24 07:27:05;;;;;;;6.33;2.03;;;;;;;16.12;27.57;99570.56;5158403;27;20261;-86
2022/03/24 07:29:31;;;;;;;3.33;1.40;;;;;;;16.02;28.51;99569.53;5158248;27;20179;-86
2022/03/24 07:31:59;;;;;;;2.67;1.40;;;;;;;16.01;28.49;99578.38;5158340;27;20166;-86
2022/03/24 07:34:25;;;;;;;7.17;2.17;;;;;;;15.94;28.51;99569.19;5140066;27;20194;-86
2022/03/24 07:36:51;;;;;;;4.20;2.03;;;;;;;15.84;28.92;99565.47;5158454;27;20259;-85
2022/03/24 07:39:16;;;;;;;8.40;3.63;;;;;;;15.76;30.21;99567.78;5158443;27;20573;-85
2022/03/24 07:41:42;;;;;;;4.83;2.10;;;;;;;15.94;29.44;99555.97;5139919;27;20606;-85
2022/03/24 07:44:07;;;;;;;4.07;1.93;;;;;;;15.96;29.56;99556.69;5140272;27;20619;-89
2022/03/24 07:46:33;;;;;;;7.77;2.40;;;;;;;16.08;29.57;99563.81;5158036;27;20170;-86
2022/03/24 07:48:59;;;;;;;5.47;2.30;;;;;;;15.69;29.50;99571.78;5157945;27;20189;-86
2022/03/24 07:51:24;;;;;;;5.83;2.13;;;;;;;15.84;29.79;99560.19;5157846;27;20648;-86
2022/03/24 07:54:02;;;;;;;4.43;2.23;;;;;;;15.91;28.91;99562.31;5139607;27;20242;-87
2022/03/24 07:56:28;;;;;;;7.43;1.80;;;;;;;15.93;29.23;99562.22;5158139;27;20154;-86
2022/03/24 07:58:54;;;;;;;8.90;2.63;;;;;;;16.17;29.90;99544.66;5157752;27;20231;-86
2022/03/24 08:01:29;;;;;;;5.97;2.50;;;;;;;16.26;29.87;99543.19;5157796;27;20168;-85
2022/03/24 08:03:55;;;;;;;3.87;2.10;;;;;;;16.21;29.04;99540.88;5157671;27;20172;-85
2022/03/24 08:06:22;;;;;;;13.43;3.20;;;;;;;16.08;29.89;99542.66;5157585;27;20675;-86
2022/03/24 08:08:47;;;;;;;5.13;2.30;;;;;;;16.31;29.81;99539.28;5157603;27;20198;-86
2022/03/24 08:11:13;;;;;;;9.67;2.63;;;;;;;16.37;29.78;99538.00;5157488;27;20236;-87
2022/03/24 08:13:38;;;;;;;5.43;2.20;;;;;;;16.43;30.18;99537.59;5157396;27;20262;-85
2022/03/24 08:16:05;;;;;;;6.93;3.03;;;;;;;16.73;30.08;99540.72;5139160;27;20527;-86
2022/03/24 08:18:31;;;;;;;5.13;2.07;;;;;;;16.84;29.87;99532.03;5158007;27;20169;-87
2022/03/24 08:20:57;;;;;;;7.13;2.40;;;;;;;16.92;29.91;99530.53;5157375;27;20254;-86
2022/03/24 08:23:22;;;;;;;5.87;2.27;;;;;;;17.16;30.11;99525.25;5156103;27;20233;-87
2022/03/24 08:25:48;;;;;;;6.37;2.10;;;;;;;17.23;30.07;99520.34;5139072;27;20182;-87
2022/03/24 08:28:14;;;;;;;4.30;1.87;;;;;;;17.52;30.31;99514.56;5157501;27;20166;-89
2022/03/24 08:30:41;;;;;;;4.57;1.93;;;;;;;17.69;30.00;99519.47;5157469;27;20205;-90
2022/03/24 08:33:09;;;;;;;8.67;2.30;;;;;;;18.07;28.91;99513.06;5157382;27;20619;-89
2022/03/24 08:35:34;;;;;;;6.60;2.80;;;;;;;18.06;28.98;99508.69;5157143;27;20174;-90
2022/03/24 08:38:00;;;;;;;3.93;1.90;;;;;;;18.12;28.41;99508.22;5139053;27;20539;-89
2022/03/24 08:40:26;;;;;;;5.40;2.17;;;;;;;18.23;29.56;99502.94;5156995;27;20231;-90
2022/03/24 08:42:51;;;;;;;6.03;2.47;;;;;;;18.63;29.10;99503.34;5156958;27;20232;-90
2022/03/24 08:45:18;;;;;;;4.13;2.17;;;;;;;18.83;28.14;99495.47;5138593;27;20170;-90
2022/03/24 08:47:43;;;;;;;4.93;2.37;;;;;;;19.03;27.42;99502.66;5156905;27;20245;-91
2022/03/24 08:50:11;;;;;;;6.47;2.23;;;;;;;19.41;28.66;99496.03;5157031;27;20279;-90
2022/03/24 08:52:37;;;;;;;4.40;2.10;;;;;;;19.52;27.69;99498.66;5156752;27;20168;-91
2022/03/24 08:55:05;;;;;;;6.97;2.30;;;;;;;19.83;27.17;99495.09;5156691;27;20509;-90
2022/03/24 08:57:31;;;;;;;8.00;2.10;;;;;;;19.94;26.37;99495.00;5138378;27;20710;-90
2022/03/24 09:00:00;;;;;;;6.50;3.13;;;;;;;19.75;26.05;99494.06;5156543;27;20253;-90
2022/03/24 09:02:27;;;;;;;8.00;2.50;;;;;;;20.12;26.55;99488.13;5156542;27;20177;-91
2022/03/24 09:04:53;;;;;;;6.07;2.67;;;;;;;20.28;25.28;99478.84;5156748;27;20164;-90
2022/03/24 09:07:18;;;;;;;4.23;2.10;;;;;;;20.47;25.06;99479.75;5156419;27;20170;-91
2022/03/24 09:09:44;;;;;;;6.33;2.27;;;;;;;20.41;24.21;99487.44;5156925;27;20302;-90
2022/03/24 09:12:16;;;;;;;6.27;2.90;;;;;;;20.27;24.34;99475.34;5138017;27;20603;-91
2022/03/24 09:14:42;;;;;;;4.27;2.20;;;;;;;20.17;23.21;99469.94;5156883;27;20158;-90
2022/03/24 09:17:08;;;;;;;6.43;2.60;;;;;;;20.41;23.65;99468.81;5156500;27;20619;-90
2022/03/24 09:19:35;;;;;;;5.30;2.40;;;;;;;20.67;24.13;99468.22;5156210;27;20170;-89
2022/03/24 09:22:10;;;;;;;9.73;2.50;;;;;;;20.22;23.50;99464.22;5156767;27;20175;-95
2022/03/24 09:24:36;;;;;;;6.37;2.33;;;;;;;20.13;23.21;99468.50;5137927;27;20173;-87
2022/03/24 09:27:03;;;;;;;6.70;2.60;;;;;;;20.39;22.42;99465.44;5156323;27;20608;-88
2022/03/24 09:29:30;;;;;;;6.90;2.37;;;;;;;20.71;21.30;99458.94;5155922;27;20623;-88
2022/03/24 09:31:55;;;;;;;8.03;3.17;;;;;;;20.46;22.58;99462.09;5156226;27;20162;-90
2022/03/24 09:34:21;;;;;;;9.97;3.17;;;;;;;20.48;22.07;99456.63;5155717;27;20630;-87
2022/03/24 09:36:46;;;;;;;6.43;2.73;;;;;;;20.72;23.00;99459.78;5156044;27;20181;-88
2022/03/24 09:39:30;;;;;;;5.50;2.30;;;;;;;21.08;21.58;99463.66;5156163;27;20656;-90
2022/03/24 09:42:26;;;;;;;8.60;2.20;;;;;;;20.96;20.58;99462.94;5156486;27;20154;-93
2022/03/24 09:45:13;;;;;;;;;;;;;;;;;;;;;
2022/03/24 09:48:15;;;;;;;5.17;2.57;;;;;;;21.19;22.79;99451.06;5156349;27;20166;-90
2022/03/24 09:53:39;;;;;;;13.00;3.33;;;;;;;21.30;22.33;99437.56;5144716;27;20281;-90
2022/03/24 09:56:09;;;;;;;4.67;2.43;;;;;;;21.54;22.22;99433.63;5137669;27;20622;-90
2022/03/24 09:58:45;;;;;;;7.23;3.00;;;;;;;21.48;22.44;99435.03;5155810;27;20154;-89
2022/03/24 10:01:20;;;;;;;8.30;3.00;;;;;;;21.49;21.50;99433.22;5155949;27;20146;-92
2022/03/24 10:04:04;;;;;;;13.07;3.07;;;;;;;21.55;21.17;99421.97;5155978;27;20518;-89
2022/03/24 10:06:30;;;;;;;6.23;2.90;;;;;;;21.79;22.84;99425.00;5155330;27;20166;-89
2022/03/24 10:08:55;;;;;;;7.70;2.30;;;;;;;21.87;22.00;99427.84;5137293;27;20167;-92
2022/03/24 10:11:27;;;;;;;5.87;3.07;;;;;;;21.60;22.42;99415.22;5155586;27;20661;-90
2022/03/24 10:14:16;;;;;;;6.03;2.50;;;;;;;21.84;21.42;99422.75;5156197;27;20321;-90
2022/03/24 10:16:45;;;;;;;4.50;2.07;;;;;;;22.34;21.09;99412.63;5154137;27;20206;-89
2022/03/24 10:19:18;;;;;;;5.70;3.07;;;;;;;22.03;20.92;99406.72;5155389;27;20196;-88
2022/03/24 10:21:49;;;;;;;9.43;2.40;;;;;;;22.25;20.96;99395.63;5136986;27;20574;-90
2022/03/24 10:24:44;;;;;;;6.13;2.77;;;;;;;22.11;20.55;99403.31;5155168;27;20190;-90
2022/03/24 10:27:13;;;;;;;4.13;1.90;;;;;;;21.80;21.31;99410.69;5118026;27;20188;-89
2022/03/24 10:29:38;;;;;;;4.97;2.30;;;;;;;22.04;21.83;99401.22;5155475;27;20676;-90
2022/03/24 10:32:31;;;;;;;5.20;2.20;;;;;;;22.33;20.83;99393.06;5136752;27;20174;-90
2022/03/24 10:35:13;;;;;;;5.03;1.87;;;;;;;22.67;21.94;99381.81;5125428;27;20183;-91
2022/03/24 10:37:53;;;;;;;6.13;2.53;;;;;;;22.60;20.81;99386.88;5136943;27;20242;-90
2022/03/24 10:40:27;;;;;;;5.53;2.63;;;;;;;22.28;21.33;99390.00;5136718;27;20211;-89
2022/03/24 10:42:59;;;;;;;8.83;2.80;;;;;;;22.41;20.34;99384.31;5154827;27;20150;-87
2022/03/24 10:45:24;;;;;;;8.77;3.20;;;;;;;22.06;20.55;99371.72;5154437;27;20151;-86
2022/03/24 10:47:52;;;;;;;5.70;2.20;;;;;;;21.95;20.61;99363.91;5154734;27;20676;-88
2022/03/24 10:50:20;;;;;;;7.13;2.23;;;;;;;22.16;20.60;99363.66;5154650;27;20725;-87
2022/03/24 10:52:47;;;;;;;8.13;2.97;;;;;;;22.31;20.63;99356.81;5154723;27;20197;-90
2022/03/24 10:55:19;;;;;;;5.37;2.20;;;;;;;22.40;20.61;99356.78;5154682;27;20181;-87
2022/03/24 10:57:44;;;;;;;7.03;3.00;;;;;;;22.03;21.02;99347.97;5154665;27;20672;-87
2022/03/24 11:00:11;;;;;;;4.53;2.07;;;;;;;21.93;20.42;99341.84;5154679;27;20170;-89
2022/03/24 11:02:37;;;;;;;5.53;2.47;;;;;;;21.93;20.83;99339.19;5154637;27;20183;-87
2022/03/24 11:05:12;;;;;;;7.40;2.97;;;;;;;22.30;21.47;99339.13;5154598;27;20547;-89
2022/03/24 11:07:38;;;;;;;6.13;2.27;;;;;;;22.40;20.45;99340.75;5154935;27;20177;-87
2022/03/24 11:10:13;;;;;;;4.20;2.17;;;;;;;22.59;21.78;99323.72;5154495;27;20659;-87
2022/03/24 11:12:42;;;;;;;7.87;2.47;;;;;;;22.37;20.47;99321.50;5136172;27;20191;-87
2022/03/24 11:15:09;;;;;;;5.57;1.60;;;;;;;22.41;21.22;99321.06;5155240;27;20182;-87
2022/03/24 11:17:38;;;;;;;4.07;1.93;;;;;;;21.83;20.98;99330.31;5136534;27;20174;-90
2022/03/24 11:20:15;;;;;;;8.00;2.83;;;;;;;21.97;21.77;99313.88;5136708;27;20170;-90
2022/03/24 11:22:53;;;;;;;4.90;2.20;;;;;;;22.21;21.64;99318.66;5154957;27;20218;-88
2022/03/24 11:25:20;;;;;;;8.33;2.43;;;;;;;21.99;20.98;99315.41;5154863;27;20167;-90
2022/03/24 11:27:47;;;;;;;5.30;2.33;;;;;;;22.00;21.25;99308.22;5154460;27;20249;-88
2022/03/24 11:30:13;;;;;;;5.20;2.33;;;;;;;22.43;20.77;99305.69;5135988;27;20191;-86
2022/03/24 11:32:44;;;;;;;4.87;2.40;;;;;;;22.95;20.41;99289.88;5154300;27;20167;-88
2022/03/24 11:35:11;;;;;;;9.07;2.77;;;;;;;23.05;20.76;99288.78;5154312;27;20170;-87
2022/03/24 11:37:40;;;;;;;5.80;2.30;;;;;;;23.21;20.64;99290.72;5154271;27;20231;-88
2022/03/24 11:40:08;;;;;;;6.13;2.43;;;;;;;23.41;20.44;99278.00;5136025;27;20177;-87
2022/03/24 11:43:07;;;;;;;4.70;2.07;;;;;;;23.03;19.44;99279.22;5136021;27;20174;-93
2022/03/24 11:45:54;;;;;;;6.00;2.17;;;;;;;22.95;20.06;99277.34;5153191;27;20647;-88